createdAt,value
2023-03-31T00:00:57.362Z,99146.14
2023-03-31T00:03:29.651Z,99146.30
2023-03-31T00:06:02.467Z,99144.62
2023-03-31T00:08:40.529Z,99141.17
2023-03-31T00:11:12.800Z,99140.35
2023-03-31T00:13:44.921Z,99143.84
2023-03-31T00:16:17.040Z,99139.52
2023-03-31T00:18:51.008Z,99139.66
2023-03-31T00:21:28.069Z,99146.72
2023-03-31T00:24:03.315Z,99143.59
2023-03-31T00:26:36.769Z,99138.09
2023-03-31T00:29:10.482Z,99136.56
2023-03-31T00:31:42.861Z,99137.47
2023-03-31T00:34:15.092Z,99136.61
2023-03-31T00:36:49.928Z,99143.59
2023-03-31T00:39:22.083Z,99139.44
2023-03-31T00:41:54.336Z,99137.72
2023-03-31T00:44:27.276Z,99133.60
2023-03-31T00:47:10.621Z,99137.99
2023-03-31T00:49:45.475Z,99128.58
2023-03-31T00:52:24.264Z,99134.55
2023-03-31T00:54:59.145Z,99127.64
2023-03-31T00:57:37.118Z,99130.23
2023-03-31T01:00:18.787Z,99133.72
2023-03-31T01:02:55.664Z,99136.15
2023-03-31T01:05:36.721Z,99134.66
2023-03-31T01:08:09.461Z,99133.05
2023-03-31T01:10:50.124Z,99132.23
2023-03-31T01:13:24.821Z,99126.34
2023-03-31T01:15:57.071Z,99120.03
2023-03-31T01:18:33.118Z,99120.31
2023-03-31T01:21:29.268Z,99109.30
2023-03-31T01:24:12.966Z,99101.69
2023-03-31T01:26:59.532Z,99100.08
2023-03-31T01:29:46.916Z,99100.08
2023-03-31T01:32:30.636Z,99094.09
2023-03-31T01:35:38.608Z,99089.97
2023-03-31T01:39:03.040Z,99097.77
2023-03-31T01:41:59.073Z,99086.00
2023-03-31T01:45:03.089Z,99094.58
2023-03-31T01:48:17.818Z,99093.05
2023-03-31T01:51:09.503Z,99084.73
2023-03-31T01:53:51.445Z,99095.08
2023-03-31T01:56:44.484Z,99091.81
2023-03-31T01:59:20.224Z,99086.53
2023-03-31T02:01:56.506Z,99083.98
2023-03-31T02:04:34.144Z,99084.66
2023-03-31T02:07:09.475Z,99079.86
2023-03-31T02:09:44.463Z,99080.87
2023-03-31T02:12:18.368Z,99075.02
2023-03-31T02:14:53.448Z,99079.39
2023-03-31T02:17:30.735Z,99068.38
2023-03-31T02:20:07.425Z,99084.09
2023-03-31T02:22:41.661Z,99072.32
2023-03-31T02:25:14.376Z,99075.94
2023-03-31T02:27:47.065Z,99076.59
2023-03-31T02:30:18.161Z,99090.41
2023-03-31T02:32:49.069Z,99085.34
2023-03-31T02:35:22.326Z,99084.52
2023-03-31T02:37:53.978Z,99076.11
2023-03-31T02:40:26.648Z,99083.89
2023-03-31T02:42:57.681Z,99091.02
2023-03-31T02:45:36.145Z,99093.76
2023-03-31T02:48:11.752Z,99090.31
2023-03-31T02:50:47.182Z,99087.94
2023-03-31T02:53:25.674Z,99081.88
2023-03-31T02:55:58.213Z,99081.14
2023-03-31T02:58:36.333Z,99091.44
2023-03-31T03:01:25.202Z,99084.72
2023-03-31T03:04:13.961Z,99081.30
2023-03-31T03:06:50.630Z,99096.80
2023-03-31T03:09:24.613Z,99095.20
2023-03-31T03:12:02.995Z,99092.59
2023-03-31T03:14:35.466Z,99077.20
2023-03-31T03:17:07.907Z,99075.45
2023-03-31T03:19:38.818Z,99083.12
2023-03-31T03:22:09.924Z,99098.64
2023-03-31T03:24:42.507Z,99102.81
2023-03-31T03:27:13.380Z,99092.49
2023-03-31T03:29:44.322Z,99088.95
2023-03-31T03:32:15.494Z,99090.31
2023-03-31T03:34:46.533Z,99077.31
2023-03-31T03:37:17.421Z,99059.13
2023-03-31T03:39:48.368Z,99058.83
2023-03-31T03:42:19.499Z,99062.78
2023-03-31T03:44:50.898Z,99063.25
2023-03-31T03:47:21.882Z,99045.66
2023-03-31T03:49:52.971Z,99048.54
2023-03-31T03:52:23.854Z,99051.75
2023-03-31T03:54:54.726Z,99052.31
2023-03-31T03:57:26.706Z,99049.45
2023-03-31T03:59:57.717Z,99029.42
2023-03-31T04:02:29.090Z,99023.30
2023-03-31T04:05:00.214Z,99028.11
2023-03-31T04:07:31.938Z,99027.94
2023-03-31T04:10:03.051Z,99014.80
2023-03-31T04:12:35.320Z,99012.20
2023-03-31T04:15:06.563Z,99014.84
2023-03-31T04:17:37.935Z,99010.23
2023-03-31T04:20:10.237Z,99000.78
2023-03-31T04:22:41.474Z,99001.38
2023-03-31T04:25:16.836Z,99002.98
2023-03-31T04:27:53.739Z,99008.76
2023-03-31T04:30:25.743Z,99018.91
2023-03-31T04:32:57.470Z,99013.13
2023-03-31T04:35:31.496Z,99009.84
2023-03-31T04:38:02.832Z,99001.98
2023-03-31T04:40:35.643Z,99003.41
2023-03-31T04:43:06.943Z,98998.00
2023-03-31T04:45:38.299Z,99004.60
2023-03-31T04:48:09.522Z,98995.37
2023-03-31T04:50:40.824Z,98991.73
2023-03-31T04:53:12.122Z,98983.79
2023-03-31T04:55:42.920Z,98983.49
2023-03-31T04:58:14.052Z,98983.27
2023-03-31T05:00:45.119Z,98974.77
2023-03-31T05:03:16.382Z,98974.13
2023-03-31T05:05:47.416Z,98981.09
2023-03-31T05:08:18.442Z,98986.23
2023-03-31T05:10:49.365Z,98991.27
2023-03-31T05:13:20.324Z,98990.13
2023-03-31T05:15:51.881Z,98987.54
2023-03-31T05:18:22.970Z,98984.61
2023-03-31T05:20:54.619Z,98983.56
2023-03-31T05:23:25.710Z,99005.05
2023-03-31T05:25:56.814Z,98997.05
2023-03-31T05:28:27.754Z,98987.97
2023-03-31T05:31:01.649Z,98992.75
2023-03-31T05:33:32.718Z,98996.61
2023-03-31T05:36:04.164Z,98998.00
2023-03-31T05:38:35.834Z,98990.97
2023-03-31T05:41:07.815Z,98993.42
2023-03-31T05:43:40.241Z,98977.08
2023-03-31T05:46:11.975Z,98985.78
2023-03-31T05:48:43.341Z,98971.70
2023-03-31T05:51:14.792Z,98981.05
2023-03-31T05:53:46.402Z,98983.59
2023-03-31T05:56:17.561Z,98985.06
2023-03-31T05:58:48.721Z,98973.89
2023-03-31T06:01:24.068Z,98965.30
2023-03-31T06:03:55.172Z,98947.82
2023-03-31T06:06:26.291Z,98952.50
2023-03-31T06:08:57.309Z,98951.31
2023-03-31T06:11:28.609Z,98956.63
2023-03-31T06:13:59.862Z,98956.84
2023-03-31T06:16:30.960Z,98951.77
2023-03-31T06:19:02.389Z,98949.91
2023-03-31T06:21:33.596Z,98951.38
2023-03-31T06:24:05.080Z,98956.20
2023-03-31T06:26:38.263Z,98957.95
2023-03-31T06:29:11.461Z,98956.91
2023-03-31T06:31:42.782Z,98956.63
2023-03-31T06:34:14.142Z,98954.55
2023-03-31T06:36:45.481Z,98961.97
2023-03-31T06:39:16.621Z,98964.92
2023-03-31T06:41:48.070Z,98966.22
2023-03-31T06:44:22.291Z,98959.91
2023-03-31T06:46:53.437Z,98943.44
2023-03-31T06:49:24.899Z,98945.75
2023-03-31T06:51:57.189Z,98951.68
2023-03-31T06:54:28.462Z,98953.30
2023-03-31T06:56:59.982Z,98949.58
2023-03-31T06:59:31.700Z,98936.50
2023-03-31T07:02:02.959Z,98938.88
2023-03-31T07:04:34.365Z,98940.55
2023-03-31T07:07:05.342Z,98948.30
2023-03-31T07:09:36.482Z,98951.69
2023-03-31T07:12:07.574Z,98947.67
2023-03-31T07:14:38.814Z,98945.20
2023-03-31T07:17:10.284Z,98938.88
2023-03-31T07:19:42.412Z,98942.66
2023-03-31T07:22:13.660Z,98930.23
2023-03-31T07:24:44.817Z,98942.26
2023-03-31T07:27:15.709Z,98929.31
2023-03-31T07:29:47.200Z,98934.58
2023-03-31T07:32:19.037Z,98931.05
2023-03-31T07:34:51.013Z,98927.89
2023-03-31T07:37:22.277Z,98936.33
2023-03-31T07:39:53.705Z,98934.58
2023-03-31T07:42:24.865Z,98923.11
2023-03-31T07:44:56.497Z,98935.82
2023-03-31T07:47:28.290Z,98932.81
2023-03-31T07:50:00.278Z,98922.94
2023-03-31T07:52:32.382Z,98926.13
2023-03-31T07:55:04.643Z,98931.33
2023-03-31T07:57:35.273Z,98926.13
2023-03-31T08:00:08.787Z,98925.20
2023-03-31T08:02:45.797Z,98926.67
2023-03-31T08:05:18.951Z,98926.22
2023-03-31T08:07:52.729Z,98926.89
2023-03-31T08:10:25.501Z,98927.55
2023-03-31T08:12:57.894Z,98917.88
2023-03-31T08:15:29.057Z,98909.91
2023-03-31T08:18:00.883Z,98908.23
2023-03-31T08:20:33.563Z,98893.81
2023-03-31T08:23:11.011Z,98898.70
2023-03-31T08:25:44.675Z,98902.77
2023-03-31T08:28:15.870Z,98899.80
2023-03-31T08:30:47.613Z,98891.97
2023-03-31T08:33:19.491Z,98895.78
2023-03-31T08:35:51.708Z,98890.27
2023-03-31T08:38:22.830Z,98886.35
2023-03-31T08:40:56.976Z,98887.66
2023-03-31T08:43:30.076Z,98877.34
2023-03-31T08:46:02.307Z,98872.64
2023-03-31T08:48:38.928Z,98868.09
2023-03-31T08:51:12.150Z,98854.03
2023-03-31T08:53:48.346Z,98844.89
2023-03-31T08:56:20.992Z,98838.08
2023-03-31T08:58:52.889Z,98838.10
2023-03-31T09:01:25.758Z,98842.53
2023-03-31T09:04:18.518Z,98844.05
2023-03-31T09:07:00.204Z,98844.91
2023-03-31T09:09:42.274Z,98843.03
2023-03-31T09:12:16.124Z,98850.70
2023-03-31T09:14:49.174Z,98844.05
2023-03-31T09:17:25.654Z,98845.15
2023-03-31T09:20:10.826Z,98835.88
2023-03-31T09:22:43.330Z,98833.38
2023-03-31T09:25:18.785Z,98833.63
2023-03-31T09:27:51.480Z,98825.55
2023-03-31T09:30:29.016Z,98819.12
2023-03-31T09:33:01.625Z,98812.64
2023-03-31T09:35:34.023Z,98812.39
2023-03-31T09:38:07.106Z,98811.63
2023-03-31T09:40:39.022Z,98794.44
2023-03-31T09:43:30.200Z,98796.89
2023-03-31T09:49:15.529Z,98788.69
2023-03-31T09:51:51.692Z,98766.36
2023-03-31T09:54:29.658Z,98768.83
2023-03-31T09:57:03.413Z,98758.60
2023-03-31T09:59:36.575Z,98763.66
2023-03-31T10:02:21.307Z,98756.81
2023-03-31T10:04:53.115Z,98762.16
2023-03-31T10:07:26.789Z,98760.05
2023-03-31T10:09:58.399Z,98766.59
2023-03-31T10:12:31.153Z,98760.59
2023-03-31T10:15:06.841Z,98766.76
2023-03-31T10:17:53.834Z,98762.27
2023-03-31T10:20:13.945Z,98759.09
2023-03-31T10:22:48.657Z,98750.31
2023-03-31T10:25:25.838Z,98756.88
2023-03-31T10:27:57.753Z,98760.26
2023-03-31T10:30:30.266Z,98755.38
2023-03-31T10:33:08.436Z,98756.56
2023-03-31T10:36:03.030Z,98748.81
2023-03-31T10:38:42.773Z,98746.03
2023-03-31T10:41:15.363Z,98735.50
2023-03-31T10:43:51.611Z,98730.10
2023-03-31T10:46:24.353Z,98724.88
2023-03-31T10:48:58.101Z,98714.69
2023-03-31T10:51:29.150Z,98699.95
2023-03-31T10:54:03.688Z,98703.30
2023-03-31T10:56:36.248Z,98691.00
2023-03-31T10:59:14.630Z,98702.30
2023-03-31T11:01:50.746Z,98698.55
2023-03-31T11:04:35.390Z,98705.66
2023-03-31T11:07:25.732Z,98707.79
2023-03-31T11:10:09.639Z,98708.73
2023-03-31T11:12:46.844Z,98695.27
2023-03-31T11:15:19.589Z,98697.49
2023-03-31T11:18:01.323Z,98695.98
2023-03-31T11:20:44.093Z,98693.46
2023-03-31T11:23:25.844Z,98688.69
2023-03-31T11:26:02.239Z,98696.04
2023-03-31T11:28:52.785Z,98689.64
2023-03-31T11:31:29.699Z,98683.00
2023-03-31T11:34:20.574Z,98686.63
2023-03-31T11:37:12.261Z,98679.91
2023-03-31T11:39:56.945Z,98670.23
2023-03-31T11:42:29.632Z,98671.14
2023-03-31T11:45:08.714Z,98665.84
2023-03-31T11:47:42.956Z,98661.72
2023-03-31T11:50:22.557Z,98661.55
2023-03-31T11:53:04.064Z,98664.41
2023-03-31T11:55:37.610Z,98663.76
2023-03-31T11:58:13.026Z,98662.08
2023-03-31T12:00:49.168Z,98651.81
2023-03-31T12:03:27.199Z,98650.22
2023-03-31T12:06:02.405Z,98652.34
2023-03-31T12:08:43.258Z,98651.84
2023-03-31T12:11:19.370Z,98646.95
2023-03-31T12:13:55.454Z,98642.18
2023-03-31T12:16:48.380Z,98644.55
2023-03-31T12:19:30.543Z,98636.72
2023-03-31T12:22:15.852Z,98623.68
2023-03-31T12:24:48.069Z,98625.44
2023-03-31T12:27:22.996Z,98620.63
2023-03-31T12:29:58.701Z,98623.41
2023-03-31T12:32:34.918Z,98618.27
2023-03-31T12:35:09.050Z,98614.64
2023-03-31T12:37:42.272Z,98612.64
2023-03-31T12:40:30.832Z,98614.31
2023-03-31T12:43:16.958Z,98610.28
2023-03-31T12:45:58.288Z,98610.11
2023-03-31T12:48:41.028Z,98606.16
2023-03-31T12:51:18.375Z,98605.31
2023-03-31T12:53:54.460Z,98598.91
2023-03-31T12:56:26.250Z,98598.09
2023-03-31T12:59:03.850Z,98598.26
2023-03-31T13:01:35.754Z,98601.20
2023-03-31T13:04:11.185Z,98601.31
2023-03-31T13:06:44.505Z,98603.42
2023-03-31T13:09:17.276Z,98596.50
2023-03-31T13:11:50.177Z,98593.90
2023-03-31T13:14:24.323Z,98591.56
2023-03-31T13:16:59.273Z,98590.30
2023-03-31T13:19:35.915Z,98591.56
2023-03-31T13:22:14.113Z,98591.26
2023-03-31T13:24:47.083Z,98587.80
2023-03-31T13:27:24.988Z,98587.95
2023-03-31T13:29:58.134Z,98587.45
2023-03-31T13:32:31.726Z,98585.44
2023-03-31T13:35:16.681Z,98584.94
2023-03-31T13:38:04.914Z,98578.29
2023-03-31T13:40:40.840Z,98583.66
2023-03-31T13:43:21.117Z,98583.50
2023-03-31T13:46:12.705Z,98574.25
2023-03-31T13:48:46.342Z,98578.95
2023-03-31T13:51:22.644Z,98578.48
2023-03-31T13:54:04.567Z,98573.20
2023-03-31T13:56:41.997Z,98562.86
2023-03-31T13:59:31.153Z,98558.81
2023-03-31T14:02:21.374Z,98565.80
2023-03-31T14:05:12.133Z,98560.16
2023-03-31T14:07:46.215Z,98559.38
2023-03-31T14:10:26.192Z,98562.92
2023-03-31T14:13:13.024Z,98555.89
2023-03-31T14:15:52.584Z,98559.31
2023-03-31T14:18:31.202Z,98548.08
2023-03-31T14:21:09.437Z,98553.28
2023-03-31T14:24:00.569Z,98552.58
2023-03-31T14:26:36.296Z,98541.35
2023-03-31T14:29:12.926Z,98545.78
2023-03-31T14:31:46.127Z,98545.11
2023-03-31T14:34:27.904Z,98543.44
2023-03-31T14:37:04.682Z,98532.25
2023-03-31T14:39:43.440Z,98540.65
2023-03-31T14:42:18.844Z,98530.58
2023-03-31T14:44:50.376Z,98525.38
2023-03-31T14:47:23.377Z,98537.02
2023-03-31T14:50:07.651Z,98537.25
2023-03-31T14:52:38.931Z,98537.59
2023-03-31T14:55:12.259Z,98527.41
2023-03-31T14:57:46.053Z,98534.39
2023-03-31T15:00:20.369Z,98536.98
2023-03-31T15:02:52.334Z,98540.52
2023-03-31T15:05:27.650Z,98529.93
2023-03-31T15:08:01.146Z,98525.73
2023-03-31T15:10:33.974Z,98528.41
2023-03-31T15:13:16.198Z,98534.88
2023-03-31T15:15:49.521Z,98531.50
2023-03-31T15:18:22.190Z,98534.17
2023-03-31T15:20:53.934Z,98539.45
2023-03-31T15:23:28.850Z,98537.77
2023-03-31T15:26:02.292Z,98541.30
2023-03-31T15:28:35.198Z,98534.42
2023-03-31T15:31:10.459Z,98538.84
2023-03-31T15:33:44.514Z,98540.52
2023-03-31T15:36:16.136Z,98533.91
2023-03-31T15:38:49.525Z,98534.72
2023-03-31T15:44:07.853Z,98537.47
2023-03-31T15:46:45.984Z,98533.27
2023-03-31T15:49:24.091Z,98536.72
2023-03-31T15:51:57.682Z,98535.20
2023-03-31T15:54:39.137Z,98532.92
2023-03-31T15:57:11.130Z,98531.39
2023-03-31T15:59:55.429Z,98534.14
2023-03-31T16:02:27.667Z,98532.47
2023-03-31T16:05:00.071Z,98527.34
2023-03-31T16:07:33.753Z,98523.21
2023-03-31T16:10:06.372Z,98533.61
2023-03-31T16:12:38.891Z,98524.81
2023-03-31T16:15:13.455Z,98530.76
2023-03-31T16:17:49.176Z,98523.59
2023-03-31T16:20:22.079Z,98520.81
2023-03-31T16:22:54.594Z,98517.32
2023-03-31T16:25:27.666Z,98519.14
2023-03-31T16:28:00.664Z,98520.81
2023-03-31T16:30:41.934Z,98523.41
2023-03-31T16:33:14.616Z,98528.62
2023-03-31T16:35:48.783Z,98526.87
2023-03-31T16:38:20.375Z,98532.06
2023-03-31T16:40:53.463Z,98534.59
2023-03-31T16:43:28.660Z,98524.87
2023-03-31T16:46:01.299Z,98530.84
2023-03-31T16:48:35.596Z,98537.66
2023-03-31T16:51:07.110Z,98535.65
2023-03-31T16:53:38.562Z,98533.97
2023-03-31T16:56:10.002Z,98532.27
2023-03-31T16:58:42.075Z,98539.10
2023-03-31T17:01:13.602Z,98532.27
2023-03-31T17:03:44.704Z,98533.05
2023-03-31T17:06:15.804Z,98532.72
2023-03-31T17:08:46.749Z,98528.30
2023-03-31T17:11:17.791Z,98525.77
2023-03-31T17:13:49.185Z,98525.92
2023-03-31T17:16:26.797Z,98525.47
2023-03-31T17:18:53.316Z,98527.47
2023-03-31T17:21:24.778Z,98520.81
2023-03-31T17:23:55.692Z,98525.20
2023-03-31T17:26:27.272Z,98513.20
2023-03-31T17:28:58.210Z,98519.29
2023-03-31T17:31:30.696Z,98525.27
2023-03-31T17:34:01.734Z,98515.80
2023-03-31T17:36:32.812Z,98514.02
2023-03-31T17:39:05.323Z,98510.59
2023-03-31T17:41:36.583Z,98519.22
2023-03-31T17:44:08.873Z,98513.94
2023-03-31T17:46:39.882Z,98510.48
2023-03-31T17:49:11.228Z,98507.81
2023-03-31T17:51:42.254Z,98509.52
2023-03-31T17:54:13.676Z,98502.69
2023-03-31T17:56:45.588Z,98500.94
2023-03-31T17:59:16.537Z,98497.59
2023-03-31T18:01:48.054Z,98496.81
2023-03-31T18:04:19.462Z,98501.09
2023-03-31T18:06:50.651Z,98495.96
2023-03-31T18:09:22.384Z,98497.67
2023-03-31T18:11:53.997Z,98501.16
2023-03-31T18:14:24.957Z,98494.29
2023-03-31T18:16:56.413Z,98489.94
2023-03-31T18:19:27.082Z,98495.96
2023-03-31T18:21:58.031Z,98489.02
2023-03-31T18:24:28.935Z,98494.14
2023-03-31T18:27:00.169Z,98482.14
2023-03-31T18:29:31.367Z,98491.77
2023-03-31T18:32:02.720Z,98489.23
2023-03-31T18:34:33.884Z,98490.09
2023-03-31T18:37:05.687Z,98486.56
2023-03-31T18:39:36.857Z,98485.74
2023-03-31T18:42:08.044Z,98481.36
2023-03-31T18:44:39.943Z,98488.56
2023-03-31T18:47:10.936Z,98485.03
2023-03-31T18:49:42.269Z,98475.94
2023-03-31T18:52:13.252Z,98474.34
2023-03-31T18:54:44.307Z,98478.84
2023-03-31T18:57:15.215Z,98473.75
2023-03-31T18:59:46.403Z,98472.11
2023-03-31T19:02:18.401Z,98477.31
2023-03-31T19:04:50.107Z,98474.64
2023-03-31T19:07:21.067Z,98469.62
2023-03-31T19:09:52.067Z,98465.31
2023-03-31T19:12:22.976Z,98460.97
2023-03-31T19:14:54.041Z,98456.63
2023-03-31T19:17:25.166Z,98457.62
2023-03-31T19:19:56.154Z,98457.70
2023-03-31T19:22:27.963Z,98455.99
2023-03-31T19:24:58.926Z,98449.97
2023-03-31T19:27:30.350Z,98454.25
2023-03-31T19:30:01.158Z,98449.20
2023-03-31T19:32:32.460Z,98444.25
2023-03-31T19:35:03.747Z,98444.40
2023-03-31T19:37:34.336Z,98453.94
2023-03-31T19:40:06.251Z,98445.33
2023-03-31T19:42:36.988Z,98444.47
2023-03-31T19:45:07.832Z,98442.02
2023-03-31T19:47:38.891Z,98443.88
2023-03-31T19:50:10.135Z,98440.59
2023-03-31T19:52:41.095Z,98434.62
2023-03-31T19:55:11.864Z,98439.07
2023-03-31T19:57:42.772Z,98429.57
2023-03-31T20:00:13.845Z,98435.48
2023-03-31T20:02:44.939Z,98428.42
2023-03-31T20:05:16.026Z,98428.83
2023-03-31T20:07:46.861Z,98422.92
2023-03-31T20:10:17.596Z,98431.71
2023-03-31T20:12:50.038Z,98424.84
2023-03-31T20:15:21.138Z,98432.88
2023-03-31T20:17:52.467Z,98432.95
2023-03-31T20:20:24.445Z,98426.16
2023-03-31T20:22:55.428Z,98424.45
2023-03-31T20:25:26.487Z,98433.24
2023-03-31T20:27:57.428Z,98425.38
2023-03-31T20:30:28.403Z,98430.50
2023-03-31T20:32:59.608Z,98420.41
2023-03-31T20:35:30.854Z,98428.19
2023-03-31T20:38:01.970Z,98419.80
2023-03-31T20:40:32.879Z,98419.05
2023-03-31T20:43:04.165Z,98413.86
2023-03-31T20:45:35.055Z,98418.88
2023-03-31T20:48:06.385Z,98415.53
2023-03-31T20:50:39.434Z,98414.85
2023-03-31T20:53:10.845Z,98414.00
2023-03-31T20:55:41.787Z,98415.67
2023-03-31T20:58:12.743Z,98412.25
2023-03-31T21:00:43.943Z,98410.27
2023-03-31T21:03:14.861Z,98409.41
2023-03-31T21:05:48.058Z,98412.86
2023-03-31T21:08:18.914Z,98410.94
2023-03-31T21:10:49.801Z,98408.34
2023-03-31T21:13:20.899Z,98413.39
2023-03-31T21:15:53.397Z,98401.47
2023-03-31T21:18:24.434Z,98411.86
2023-03-31T21:20:56.819Z,98404.14
2023-03-31T21:23:28.441Z,98410.27
2023-03-31T21:26:00.867Z,98402.22
2023-03-31T21:28:33.028Z,98409.87
2023-03-31T21:31:10.883Z,98403.15
2023-03-31T21:33:43.085Z,98409.41
2023-03-31T21:36:15.539Z,98413.08
2023-03-31T21:38:46.892Z,98418.44
2023-03-31T21:41:20.772Z,98417.66
2023-03-31T21:43:51.877Z,98415.06
2023-03-31T21:46:24.748Z,98414.07
2023-03-31T21:48:56.539Z,98410.65
2023-03-31T21:51:28.780Z,98414.00
2023-03-31T21:53:59.779Z,98415.67
2023-03-31T21:56:32.418Z,98412.39
2023-03-31T21:59:04.432Z,98413.39
2023-03-31T22:01:35.302Z,98403.83
2023-03-31T22:04:06.177Z,98406.28
2023-03-31T22:06:38.819Z,98412.25
2023-03-31T22:09:09.721Z,98401.94
2023-03-31T22:11:40.817Z,98401.23
2023-03-31T22:14:11.837Z,98402.08
2023-03-31T22:16:42.959Z,98395.22
2023-03-31T22:19:14.286Z,98391.55
2023-03-31T22:21:45.899Z,98396.75
2023-03-31T22:24:16.945Z,98393.22
2023-03-31T22:26:47.908Z,98391.55
2023-03-31T22:29:18.637Z,98387.18
2023-03-31T22:31:49.651Z,98391.48
2023-03-31T22:34:20.552Z,98387.18
2023-03-31T22:36:52.069Z,98389.02
2023-03-31T22:39:23.296Z,98388.17
2023-03-31T22:41:54.621Z,98387.35
2023-03-31T22:44:25.738Z,98385.66
2023-03-31T22:46:56.616Z,98384.83
2023-03-31T22:49:27.670Z,98381.31
2023-03-31T22:51:58.550Z,98385.36
2023-03-31T22:54:29.790Z,98381.23
2023-03-31T22:57:00.743Z,98378.78
2023-03-31T22:59:32.147Z,98383.05
2023-03-31T23:02:03.561Z,98381.31
2023-03-31T23:04:34.482Z,98374.52
2023-03-31T23:07:05.649Z,98379.78
2023-03-31T23:09:37.432Z,98385.90
2023-03-31T23:12:08.511Z,98372.91
2023-03-31T23:14:39.390Z,98369.39
2023-03-31T23:17:11.476Z,98366.73
2023-03-31T23:19:43.270Z,98365.88
2023-03-31T23:22:14.555Z,98370.17
2023-03-31T23:24:45.510Z,98368.47
2023-03-31T23:27:16.404Z,98369.39
2023-03-31T23:29:47.561Z,98369.39
2023-03-31T23:32:18.556Z,98370.25
2023-03-31T23:34:50.072Z,98371.31
2023-03-31T23:37:20.931Z,98366.94
2023-03-31T23:39:52.155Z,98367.87
2023-03-31T23:42:23.150Z,98367.87
2023-03-31T23:44:53.987Z,98364.34
2023-03-31T23:47:25.017Z,98368.64
2023-03-31T23:49:57.195Z,98364.20
2023-03-31T23:52:28.126Z,98366.05
2023-03-31T23:54:59.176Z,98369.39
2023-03-31T23:57:30.276Z,98365.88
